首页
METAR-TAF:

METAR-TAF

机场 :

岡山機場

岡山, 日本

纬度: 34-45N, 经度: 133-51E, 海拔: 241米

当前天气观测

该预报发布于27分钟前的09:00 UTC
风速3节,风向西,在西南西北之间变化
温度 10°C
湿度 50%
气压 1020 hPa
能见度10公里或以上
少量云层高于3500英尺
散云层高于18000英尺
多云

METAR: RJOB 040900Z 27003KT 220V320 9999 FEW035 SCT180 BKN/// 10/M00 Q1020

时间: 18:27 (09:27 UTC)

预报

该预报发布于4小时和21分钟前的05:06 UTC
预报有效从04日的 06点(UTC)到 05日的 12点(UTC)
风速6节,风向西转西北
能见度10公里或以上
少量云层高于3000英尺
成为
从 04日的 09点(UTC)到 04日的 11点(UTC)
风速5节,风向东北
短暂存在
从 05日的 00点(UTC)到 05日的 06点(UTC)
能見度: 4000
少量云层高于100英尺
多云层高于800英尺
多云层高于1500英尺
小雨, 轻雾
短暂存在
从 05日的 06点(UTC)到 05日的 12点(UTC)
能見度: 3000
少量云层低于100英尺
多云层高于500英尺
多云层高于1500英尺
雨, 轻雾, 碎片雾,

TAF: RJOB 040506Z 0406/0512 29006KT 9999 FEW030 BECMG 0409/0411 04005KT TEMPO 0500/0506 4000 -RA BR FEW001 BKN008 BKN015 TEMPO 0506/0512 3000 RA BR BCFG FEW000 BKN005 BKN015

超过4000个机场的气象观测和天气预报(METAR&TAF报告)。

可查询的气象台以黄色和红色小点在地图上表示。

将鼠标移到小点上方,可查看气象台名称。

然后点击查看天气观测和预报。

如需切换地图:点击带黑十字的绿色按钮放大地图;点击带横线的绿色按钮缩小地图;或者点击绿色箭头查看邻近地区的地图。


METAR-TAF: